createdAt,value
2018-02-13T00:01:53.314Z,3.80
2018-02-13T00:04:22.316Z,2.62
2018-02-13T00:06:51.340Z,2.92
2018-02-13T00:09:18.868Z,2.58
2018-02-13T00:11:47.890Z,2.72
2018-02-13T00:14:16.138Z,3.92
2018-02-13T00:16:45.158Z,5.25
2018-02-13T00:19:13.402Z,4.55
2018-02-13T00:21:42.411Z,3.65
2018-02-13T00:24:10.653Z,4.90
2018-02-13T00:26:38.913Z,3.78
2018-02-13T00:29:06.446Z,2.87
2018-02-13T00:31:34.745Z,2.85
2018-02-13T00:34:02.990Z,3.72
2018-02-13T00:36:31.229Z,2.83
2018-02-13T00:39:00.248Z,9.32
2018-02-13T00:41:28.539Z,2.87
2018-02-13T00:43:56.745Z,2.70
2018-02-13T00:46:24.992Z,3.40
2018-02-13T00:48:53.370Z,3.08
2018-02-13T00:51:21.600Z,3.33
2018-02-13T00:53:50.612Z,3.37
2018-02-13T00:56:18.857Z,4.53
2018-02-13T00:58:47.109Z,5.22
2018-02-13T01:01:15.363Z,5.78
2018-02-13T01:03:43.613Z,3.37
2018-02-13T01:06:11.854Z,6.32
2018-02-13T01:08:40.111Z,5.35
2018-02-13T01:11:08.349Z,9.52
2018-02-13T01:13:36.609Z,3.87
2018-02-13T01:16:04.848Z,4.07
2018-02-13T01:18:33.105Z,5.60
2018-02-13T01:21:01.355Z,5.78
2018-02-13T01:23:29.604Z,4.15
2018-02-13T01:25:58.617Z,5.00
2018-02-13T01:28:26.884Z,3.47
2018-02-13T01:30:55.126Z,4.10
2018-02-13T01:33:23.369Z,7.60
2018-02-13T01:35:51.617Z,3.92
2018-02-13T01:38:19.859Z,2.65
2018-02-13T01:40:48.883Z,3.03
2018-02-13T01:43:17.129Z,5.75
2018-02-13T01:45:46.155Z,8.45
2018-02-13T01:48:14.400Z,5.87
2018-02-13T01:50:42.649Z,10.30
2018-02-13T01:53:10.890Z,5.57
2018-02-13T01:55:39.149Z,5.65
2018-02-13T01:58:07.403Z,5.90
2018-02-13T02:00:36.418Z,6.75
2018-02-13T02:03:04.666Z,9.55
2018-02-13T02:05:32.914Z,5.47
2018-02-13T02:08:01.163Z,7.10
2018-02-13T02:10:29.418Z,7.25
2018-02-13T02:12:57.663Z,6.87
2018-02-13T02:15:26.680Z,8.32
2018-02-13T02:17:54.933Z,7.12
2018-02-13T02:20:23.185Z,6.47
2018-02-13T02:22:51.432Z,4.97
2018-02-13T02:25:19.679Z,7.35
2018-02-13T02:27:47.929Z,9.55
2018-02-13T02:30:16.948Z,5.97
2018-02-13T02:32:46.059Z,6.87
2018-02-13T02:35:14.301Z,6.70
2018-02-13T02:37:43.322Z,8.52
2018-02-13T02:40:11.564Z,8.13
2018-02-13T02:42:58.239Z,6.32
2018-02-13T02:45:26.481Z,6.22
2018-02-13T02:47:54.748Z,5.95
2018-02-13T02:50:23.746Z,7.05
2018-02-13T02:52:52.001Z,8.48
2018-02-13T02:55:21.018Z,6.60
2018-02-13T02:57:49.273Z,7.68
2018-02-13T03:00:18.275Z,5.40
2018-02-13T03:02:46.538Z,12.90
2018-02-13T03:05:15.557Z,6.07
2018-02-13T03:07:43.813Z,9.73
2018-02-13T03:10:12.835Z,7.40
2018-02-13T03:12:41.074Z,8.13
2018-02-13T03:15:10.104Z,11.12
2018-02-13T03:17:38.342Z,5.00
2018-02-13T03:20:07.364Z,4.80
2018-02-13T03:22:35.609Z,8.32
2018-02-13T03:25:04.646Z,7.57
2018-02-13T03:27:32.893Z,8.05
2018-02-13T03:30:01.148Z,13.60
2018-02-13T03:32:30.164Z,5.45
2018-02-13T03:34:58.417Z,2.80
2018-02-13T03:37:27.427Z,5.40
2018-02-13T03:39:55.677Z,6.62
2018-02-13T03:42:23.920Z,8.75
2018-02-13T03:44:52.175Z,9.60
2018-02-13T03:47:20.430Z,6.85
2018-02-13T03:49:49.450Z,9.10
2018-02-13T03:52:17.692Z,8.50
2018-02-13T03:54:46.715Z,9.23
2018-02-13T03:57:14.977Z,12.55
2018-02-13T03:59:43.278Z,10.43
2018-02-13T04:02:11.520Z,8.20
2018-02-13T04:04:39.769Z,7.62
2018-02-13T04:07:08.016Z,7.47
2018-02-13T04:09:36.269Z,10.10
2018-02-13T04:12:04.525Z,10.63
2018-02-13T04:14:32.773Z,8.18
2018-02-13T04:17:01.032Z,11.05
2018-02-13T04:19:29.281Z,7.70
2018-02-13T04:21:57.528Z,9.40
2018-02-13T04:24:25.773Z,9.35
2018-02-13T04:26:54.029Z,11.88
2018-02-13T04:29:22.278Z,11.90
2018-02-13T04:31:50.538Z,11.00
2018-02-13T04:34:18.791Z,7.75
2018-02-13T04:36:47.801Z,7.22
2018-02-13T04:39:16.096Z,5.87
2018-02-13T04:41:45.061Z,6.12
2018-02-13T04:44:13.317Z,11.43
2018-02-13T04:46:42.336Z,12.23
2018-02-13T04:49:10.588Z,8.13
2018-02-13T04:51:39.608Z,8.68
2018-02-13T04:54:07.863Z,14.75
2018-02-13T04:56:36.877Z,7.07
2018-02-13T04:59:05.128Z,6.62
2018-02-13T05:01:34.139Z,8.70
2018-02-13T05:04:02.394Z,8.43
2018-02-13T05:06:31.401Z,11.20
2018-02-13T05:08:59.662Z,10.20
2018-02-13T05:11:28.683Z,10.90
2018-02-13T05:13:56.934Z,9.93
2018-02-13T05:16:25.950Z,13.15
2018-02-13T05:18:54.496Z,6.40
2018-02-13T05:21:22.737Z,11.07
2018-02-13T05:23:50.997Z,9.32
2018-02-13T05:26:19.235Z,10.73
2018-02-13T05:28:48.257Z,8.80
2018-02-13T05:31:16.501Z,9.63
2018-02-13T05:33:45.517Z,11.70
2018-02-13T05:36:14.534Z,13.10
2018-02-13T05:38:42.790Z,7.43
2018-02-13T05:41:11.036Z,17.15
2018-02-13T05:43:40.051Z,9.10
2018-02-13T05:46:08.306Z,18.10
2018-02-13T05:48:37.321Z,12.55
2018-02-13T05:51:05.574Z,10.35
2018-02-13T05:53:34.590Z,9.13
2018-02-13T05:56:02.833Z,7.70
2018-02-13T05:58:31.128Z,9.52
2018-02-13T06:01:00.148Z,16.65
2018-02-13T06:03:28.385Z,10.70
2018-02-13T06:05:57.410Z,10.00
2018-02-13T06:08:25.652Z,12.55
2018-02-13T06:10:54.676Z,4.80
2018-02-13T06:13:22.916Z,11.70
2018-02-13T06:15:51.164Z,6.80
2018-02-13T06:18:19.409Z,5.47
2018-02-13T06:20:47.660Z,11.88
2018-02-13T06:23:16.673Z,9.82
2018-02-13T06:25:44.929Z,7.30
2018-02-13T06:28:14.066Z,7.50
2018-02-13T06:30:42.417Z,10.35
2018-02-13T06:33:10.770Z,10.95
2018-02-13T06:35:39.894Z,8.80
2018-02-13T06:38:08.225Z,10.68
2018-02-13T06:40:36.630Z,12.18
2018-02-13T06:43:05.704Z,9.20
2018-02-13T06:45:34.036Z,14.45
2018-02-13T06:48:02.403Z,14.63
2018-02-13T06:50:30.748Z,12.20
2018-02-13T06:52:59.860Z,13.10
2018-02-13T06:55:28.981Z,11.93
2018-02-13T06:57:57.389Z,9.75
2018-02-13T07:00:25.714Z,11.63
2018-02-13T07:02:54.839Z,8.23
2018-02-13T07:05:23.177Z,7.97
2018-02-13T07:07:52.264Z,9.68
2018-02-13T07:10:20.600Z,12.88
2018-02-13T07:12:48.961Z,8.80
2018-02-13T07:15:17.289Z,9.70
2018-02-13T07:17:45.684Z,11.00
2018-02-13T07:20:14.818Z,9.75
2018-02-13T07:22:43.230Z,9.00
2018-02-13T07:25:11.573Z,12.37
2018-02-13T07:27:40.034Z,13.60
2018-02-13T07:30:08.385Z,10.98
2018-02-13T07:32:36.730Z,6.57
2018-02-13T07:35:05.129Z,11.00
2018-02-13T07:37:33.560Z,8.57
2018-02-13T07:40:01.848Z,10.85
2018-02-13T07:42:30.159Z,8.10
2018-02-13T07:44:58.521Z,8.32
2018-02-13T07:47:26.840Z,9.00
2018-02-13T07:49:55.992Z,5.12
2018-02-13T07:52:24.366Z,8.90
2018-02-13T07:54:52.720Z,7.45
2018-02-13T07:57:21.064Z,7.07
2018-02-13T07:59:50.197Z,8.43
2018-02-13T08:02:18.649Z,8.05
2018-02-13T08:04:47.751Z,7.78
2018-02-13T08:07:16.125Z,7.25
2018-02-13T08:09:44.496Z,7.57
2018-02-13T08:12:13.651Z,5.87
2018-02-13T08:14:41.993Z,6.45
2018-02-13T08:17:10.369Z,10.77
2018-02-13T08:19:38.692Z,5.97
2018-02-13T08:22:07.131Z,6.62
2018-02-13T08:24:35.515Z,8.88
2018-02-13T08:27:03.911Z,9.23
2018-02-13T08:29:32.339Z,5.95
2018-02-13T08:32:02.658Z,9.70
2018-02-13T08:34:31.804Z,5.53
2018-02-13T08:37:00.261Z,6.00
2018-02-13T08:39:28.692Z,8.73
2018-02-13T08:41:57.013Z,6.18
2018-02-13T08:44:25.273Z,7.55
2018-02-13T08:46:54.357Z,9.57
2018-02-13T08:49:23.547Z,7.70
2018-02-13T08:51:52.755Z,7.45
2018-02-13T08:54:21.867Z,9.90
2018-02-13T08:56:50.160Z,11.82
2018-02-13T08:59:18.662Z,10.32
2018-02-13T09:01:47.779Z,7.53
2018-02-13T09:04:16.167Z,4.18
2018-02-13T09:06:44.497Z,4.30
2018-02-13T09:09:12.950Z,5.37
2018-02-13T09:11:41.298Z,7.60
2018-02-13T09:14:09.635Z,4.85
2018-02-13T09:16:38.026Z,6.60
2018-02-13T09:19:06.327Z,10.73
2018-02-13T09:21:34.677Z,7.90
2018-02-13T09:24:02.951Z,4.75
2018-02-13T09:26:31.318Z,10.23
2018-02-13T09:28:59.624Z,6.00
2018-02-13T09:31:28.076Z,5.00
2018-02-13T09:33:56.406Z,3.70
2018-02-13T09:36:24.795Z,5.60
2018-02-13T09:38:55.167Z,6.20
2018-02-13T09:41:23.529Z,4.05
2018-02-13T09:43:51.888Z,5.70
2018-02-13T09:46:21.079Z,9.55
2018-02-13T09:48:50.230Z,3.70
2018-02-13T09:51:18.584Z,4.87
2018-02-13T09:53:46.952Z,10.55
2018-02-13T09:56:15.336Z,11.12
2018-02-13T09:58:43.719Z,7.00
2018-02-13T10:01:12.177Z,5.90
2018-02-13T10:03:40.625Z,9.60
2018-02-13T10:06:08.949Z,6.43
2018-02-13T10:08:37.318Z,6.45
2018-02-13T10:11:05.633Z,4.05
2018-02-13T10:13:34.039Z,5.47
2018-02-13T10:16:02.411Z,4.78
2018-02-13T10:18:31.082Z,5.20
2018-02-13T10:20:59.469Z,4.07
2018-02-13T10:23:27.850Z,8.93
2018-02-13T10:25:56.300Z,3.95
2018-02-13T10:28:24.616Z,5.30
2018-02-13T10:30:53.003Z,6.15
2018-02-13T10:33:22.113Z,9.43
2018-02-13T10:35:51.226Z,3.37
2018-02-13T10:38:19.482Z,3.15
2018-02-13T10:40:48.535Z,5.55
2018-02-13T10:43:16.928Z,3.25
2018-02-13T10:45:45.246Z,9.00
2018-02-13T10:48:13.647Z,2.20
2018-02-13T10:50:41.952Z,2.10
2018-02-13T10:53:10.330Z,4.40
2018-02-13T10:55:38.715Z,3.73
2018-02-13T10:58:07.038Z,3.87
2018-02-13T11:00:40.889Z,4.47
2018-02-13T11:03:09.273Z,1.90
2018-02-13T11:05:37.629Z,4.27
2018-02-13T11:08:05.970Z,4.70
2018-02-13T11:10:35.105Z,2.03
2018-02-13T11:13:03.540Z,1.87
2018-02-13T11:15:32.689Z,2.43
2018-02-13T11:18:01.104Z,2.60
2018-02-13T11:20:29.424Z,4.60
2018-02-13T11:22:57.806Z,1.33
2018-02-13T11:25:26.210Z,4.90
2018-02-13T11:27:55.314Z,3.10
2018-02-13T11:30:23.701Z,1.97
2018-02-13T11:32:52.117Z,1.27
2018-02-13T11:35:20.456Z,0.87
2018-02-13T11:37:48.771Z,3.70
2018-02-13T11:40:17.088Z,1.10
2018-02-13T11:42:45.442Z,2.00
2018-02-13T11:45:13.753Z,5.33
2018-02-13T11:47:42.147Z,3.13
2018-02-13T11:50:10.635Z,1.37
2018-02-13T11:52:39.012Z,1.77
2018-02-13T11:55:08.116Z,1.20
2018-02-13T11:57:37.192Z,2.97
2018-02-13T12:00:05.552Z,4.30
2018-02-13T12:02:33.919Z,3.90
2018-02-13T12:05:02.320Z,4.47
2018-02-13T12:07:30.645Z,4.70
2018-02-13T12:09:59.000Z,4.23
2018-02-13T12:12:28.101Z,4.73
2018-02-13T12:14:57.292Z,3.93
2018-02-13T12:17:26.465Z,4.47
2018-02-13T12:19:54.864Z,6.53
2018-02-13T12:22:24.007Z,4.77
2018-02-13T12:24:52.346Z,4.17
2018-02-13T12:27:21.545Z,6.43
2018-02-13T12:29:50.757Z,3.70
2018-02-13T12:32:19.194Z,4.03
2018-02-13T12:34:47.595Z,7.03
2018-02-13T12:37:15.965Z,4.07
2018-02-13T12:39:45.085Z,3.30
2018-02-13T12:42:13.480Z,6.03
2018-02-13T12:44:41.823Z,3.77
2018-02-13T12:47:11.017Z,2.83
2018-02-13T12:49:40.112Z,5.73
2018-02-13T12:52:09.423Z,4.93
2018-02-13T12:54:38.516Z,2.60
2018-02-13T12:57:07.615Z,4.60
2018-02-13T12:59:36.765Z,4.83
2018-02-13T13:02:05.239Z,3.30
2018-02-13T13:04:33.689Z,3.80
2018-02-13T13:07:02.071Z,4.30
2018-02-13T13:09:30.461Z,8.33
2018-02-13T13:11:58.958Z,8.53
2018-02-13T13:14:27.343Z,8.07
2018-02-13T13:16:55.664Z,3.97
2018-02-13T13:19:24.829Z,3.40
2018-02-13T13:21:53.179Z,3.60
2018-02-13T13:24:21.574Z,3.07
2018-02-13T13:26:49.962Z,3.20
2018-02-13T13:29:19.069Z,8.40
2018-02-13T13:31:47.525Z,5.37
2018-02-13T13:34:15.888Z,7.47
2018-02-13T13:36:46.356Z,3.93
2018-02-13T13:39:14.692Z,3.20
2018-02-13T13:41:43.026Z,4.90
2018-02-13T13:44:12.130Z,3.43
2018-02-13T13:46:41.229Z,3.93
2018-02-13T13:49:09.647Z,3.50
2018-02-13T13:51:38.059Z,4.73
2018-02-13T13:54:07.220Z,4.33
2018-02-13T13:56:35.612Z,5.70
2018-02-13T13:59:03.931Z,7.00
2018-02-13T14:01:33.027Z,10.50
2018-02-13T14:04:02.096Z,5.53
2018-02-13T14:06:30.523Z,8.03
2018-02-13T14:08:58.949Z,5.60
2018-02-13T14:11:27.357Z,6.97
2018-02-13T14:13:56.410Z,3.67
2018-02-13T14:16:24.733Z,4.10
2018-02-13T14:18:53.856Z,3.77
2018-02-13T14:21:22.206Z,6.37
2018-02-13T14:23:51.330Z,3.60
2018-02-13T14:26:19.784Z,4.43
2018-02-13T14:28:48.885Z,6.37
2018-02-13T14:31:18.055Z,4.80
2018-02-13T14:33:46.416Z,4.43
2018-02-13T14:36:14.775Z,5.23
2018-02-13T14:38:43.096Z,6.33
2018-02-13T14:41:12.163Z,5.13
2018-02-13T14:43:40.488Z,3.97
2018-02-13T14:46:08.815Z,5.83
2018-02-13T14:48:37.190Z,4.90
2018-02-13T14:51:05.499Z,4.57
2018-02-13T14:53:33.815Z,4.40
2018-02-13T14:56:02.109Z,5.60
2018-02-13T14:58:30.417Z,3.57
2018-02-13T15:00:58.720Z,10.07
2018-02-13T15:03:27.032Z,7.03
2018-02-13T15:05:55.309Z,4.43
2018-02-13T15:08:23.600Z,5.00
2018-02-13T15:10:51.929Z,3.87
2018-02-13T15:13:20.231Z,6.67
2018-02-13T15:15:48.525Z,6.67
2018-02-13T15:18:32.536Z,6.13
2018-02-13T15:21:00.863Z,11.13
2018-02-13T15:23:29.173Z,16.93
2018-02-13T15:25:58.254Z,30.70
2018-02-13T15:28:27.356Z,12.23
2018-02-13T15:30:56.441Z,9.37
2018-02-13T15:33:24.764Z,4.83
2018-02-13T15:35:53.068Z,4.43
2018-02-13T15:38:21.361Z,7.70
2018-02-13T15:40:49.667Z,6.57
2018-02-13T15:43:17.973Z,8.80
2018-02-13T15:45:46.296Z,19.40
2018-02-13T15:48:15.372Z,40.63
2018-02-13T15:50:43.716Z,22.90
2018-02-13T15:53:12.023Z,13.02
2018-02-13T15:55:40.331Z,9.85
2018-02-13T15:58:09.432Z,14.40
2018-02-13T16:00:37.796Z,8.25
2018-02-13T16:03:06.904Z,5.55
2018-02-13T16:05:35.229Z,6.22
2018-02-13T16:08:03.502Z,6.65
2018-02-13T16:10:31.820Z,5.47
2018-02-13T16:13:00.155Z,4.70
2018-02-13T16:15:28.503Z,9.07
2018-02-13T16:17:56.855Z,14.35
2018-02-13T16:20:25.916Z,10.57
2018-02-13T16:22:54.259Z,17.73
2018-02-13T16:25:22.597Z,4.40
2018-02-13T16:27:50.888Z,6.47
2018-02-13T16:30:19.232Z,5.68
2018-02-13T16:32:47.561Z,8.10
2018-02-13T16:35:15.876Z,11.10
2018-02-13T16:37:44.209Z,14.90
2018-02-13T16:40:12.532Z,5.62
2018-02-13T16:42:40.871Z,7.77
2018-02-13T16:45:09.214Z,10.52
2018-02-13T16:47:37.533Z,7.22
2018-02-13T16:50:05.853Z,9.35
2018-02-13T16:52:34.156Z,5.65
2018-02-13T16:55:03.277Z,9.15
2018-02-13T16:57:31.607Z,6.03
2018-02-13T16:59:59.924Z,8.50
2018-02-13T17:02:28.228Z,11.23
2018-02-13T17:04:56.539Z,7.43
2018-02-13T17:07:24.853Z,10.02
2018-02-13T17:09:53.155Z,9.40
2018-02-13T17:12:21.497Z,7.80
2018-02-13T17:14:50.569Z,8.02
2018-02-13T17:17:18.892Z,6.82
2018-02-13T17:19:47.194Z,7.93
2018-02-13T17:22:15.521Z,9.13
2018-02-13T17:24:44.598Z,9.25
2018-02-13T17:27:12.920Z,11.82
2018-02-13T17:29:41.232Z,15.45
2018-02-13T17:32:09.609Z,13.07
2018-02-13T17:34:37.940Z,13.30
2018-02-13T17:37:06.261Z,9.52
2018-02-13T17:39:34.605Z,11.18
2018-02-13T17:42:02.907Z,9.80
2018-02-13T17:44:31.228Z,7.45
2018-02-13T17:47:00.294Z,9.75
2018-02-13T17:49:28.617Z,11.90
2018-02-13T17:51:56.937Z,11.27
2018-02-13T17:54:25.268Z,12.73
2018-02-13T17:56:54.328Z,11.70
2018-02-13T17:59:22.670Z,14.10
2018-02-13T18:01:50.985Z,14.07
2018-02-13T18:04:19.349Z,12.48
2018-02-13T18:06:47.677Z,12.07
2018-02-13T18:09:15.951Z,10.05
2018-02-13T18:11:44.192Z,9.93
2018-02-13T18:14:13.224Z,8.02
2018-02-13T18:16:41.476Z,10.95
2018-02-13T18:19:10.492Z,10.25
2018-02-13T18:21:38.753Z,10.88
2018-02-13T18:24:07.769Z,13.20
2018-02-13T18:26:36.018Z,20.02
2018-02-13T18:29:05.026Z,16.15
2018-02-13T18:31:33.319Z,13.30
2018-02-13T18:34:01.602Z,32.80
2018-02-13T18:36:30.643Z,14.38
2018-02-13T18:39:00.716Z,11.18
2018-02-13T18:41:29.757Z,8.95
2018-02-13T18:43:58.298Z,12.80
2018-02-13T18:46:26.598Z,12.75
2018-02-13T18:48:55.415Z,13.10
2018-02-13T18:51:24.603Z,14.43
2018-02-13T19:00:01.285Z,7.40
2018-02-13T19:02:29.614Z,8.90
2018-02-13T19:04:58.671Z,9.80
2018-02-13T19:07:27.041Z,11.40
2018-02-13T19:09:55.538Z,11.02
2018-02-13T19:12:23.847Z,15.45
2018-02-13T19:14:52.221Z,11.35
2018-02-13T19:17:21.407Z,14.07
2018-02-13T19:19:49.661Z,11.32
2018-02-13T19:22:17.931Z,17.25
2018-02-13T19:24:46.185Z,14.70
2018-02-13T19:27:14.449Z,13.75
2018-02-13T19:29:42.716Z,10.65
2018-02-13T19:32:13.433Z,16.73
2018-02-13T19:34:41.764Z,12.60
2018-02-13T19:37:10.028Z,14.73
2018-02-13T19:39:38.550Z,16.40
2018-02-13T19:42:07.416Z,13.60
2018-02-13T19:44:36.088Z,12.02
2018-02-13T19:47:05.365Z,16.42
2018-02-13T19:49:33.852Z,13.43
2018-02-13T19:52:03.322Z,18.00
2018-02-13T19:54:31.684Z,13.10
2018-02-13T19:57:00.808Z,23.92
2018-02-13T19:59:29.053Z,17.35
2018-02-13T20:01:58.070Z,15.23
2018-02-13T20:04:26.322Z,12.95
2018-02-13T20:06:54.595Z,10.55
2018-02-13T20:09:23.644Z,9.07
2018-02-13T20:11:51.895Z,18.92
2018-02-13T20:14:20.160Z,13.95
2018-02-13T20:16:48.413Z,20.42
2018-02-13T20:19:17.471Z,10.90
2018-02-13T20:21:45.718Z,21.62
2018-02-13T20:24:13.980Z,13.20
2018-02-13T20:26:42.227Z,12.40
2018-02-13T20:29:10.481Z,19.42
2018-02-13T20:31:38.767Z,16.33
2018-02-13T20:34:06.983Z,16.12
2018-02-13T20:36:35.233Z,11.60
2018-02-13T20:39:03.503Z,55.40
2018-02-13T20:41:31.749Z,23.40
2018-02-13T20:44:00.016Z,24.95
2018-02-13T20:46:28.256Z,21.20
2018-02-13T20:48:56.516Z,21.12
2018-02-13T20:51:26.354Z,20.52
2018-02-13T20:53:54.821Z,26.10
2018-02-13T20:56:23.834Z,19.98
2018-02-13T20:58:52.095Z,16.62
2018-02-13T21:01:20.341Z,16.60
2018-02-13T21:03:48.603Z,17.92
2018-02-13T21:06:16.861Z,22.75
2018-02-13T21:08:45.134Z,17.58
2018-02-13T21:11:13.406Z,16.85
2018-02-13T21:13:41.649Z,16.77
2018-02-13T21:16:10.671Z,18.12
2018-02-13T21:18:38.933Z,21.95
2018-02-13T21:21:07.188Z,17.42
2018-02-13T21:23:35.443Z,22.67
2018-02-13T21:26:03.700Z,27.08
2018-02-13T21:28:31.952Z,27.37
2018-02-13T21:31:00.203Z,27.05
2018-02-13T21:33:28.461Z,31.50
2018-02-13T21:35:57.487Z,23.23
2018-02-13T21:38:25.772Z,21.30
2018-02-13T21:40:54.028Z,18.60
2018-02-13T21:43:22.288Z,20.67
2018-02-13T21:45:51.316Z,25.95
2018-02-13T21:48:19.602Z,26.83
2018-02-13T21:50:47.834Z,21.92
2018-02-13T21:53:16.085Z,20.65
2018-02-13T21:55:44.346Z,16.70
2018-02-13T21:58:12.602Z,22.65
2018-02-13T22:00:40.860Z,20.33
2018-02-13T22:03:09.129Z,18.40
2018-02-13T22:05:37.385Z,25.83
2018-02-13T22:08:06.407Z,28.60
2018-02-13T22:10:34.680Z,28.40
2018-02-13T22:13:02.955Z,22.65
2018-02-13T22:15:31.217Z,23.38
2018-02-13T22:18:00.254Z,17.42
2018-02-13T22:20:28.509Z,27.83
2018-02-13T22:22:56.788Z,24.90
2018-02-13T22:25:25.051Z,22.17
2018-02-13T22:27:53.296Z,19.95
2018-02-13T22:30:22.347Z,21.77
2018-02-13T22:32:50.618Z,22.20
2018-02-13T22:35:18.866Z,20.17
2018-02-13T22:37:47.133Z,19.10
2018-02-13T22:40:15.400Z,18.80
2018-02-13T22:42:44.433Z,18.02
2018-02-13T22:45:12.716Z,20.05
2018-02-13T22:47:40.989Z,20.42
2018-02-13T22:50:09.256Z,19.52
2018-02-13T22:52:37.519Z,17.37
2018-02-13T22:55:05.771Z,18.42
2018-02-13T22:57:34.796Z,16.95
2018-02-13T23:00:03.053Z,18.33
2018-02-13T23:02:31.406Z,20.08
2018-02-13T23:04:59.746Z,17.62
2018-02-13T23:07:28.033Z,15.77
2018-02-13T23:09:56.348Z,17.30
2018-02-13T23:12:25.407Z,25.85
2018-02-13T23:14:53.722Z,12.18
2018-02-13T23:17:22.883Z,13.73
2018-02-13T23:19:51.274Z,23.02
2018-02-13T23:22:19.620Z,13.70
2018-02-13T23:24:48.010Z,20.95
2018-02-13T23:27:16.373Z,13.27
2018-02-13T23:29:44.765Z,18.92
2018-02-13T23:32:13.168Z,16.85
2018-02-13T23:34:42.355Z,15.07
2018-02-13T23:37:10.710Z,18.73
2018-02-13T23:39:39.050Z,15.50
2018-02-13T23:42:07.386Z,14.43
2018-02-13T23:44:35.833Z,18.60
2018-02-13T23:47:04.256Z,18.08
2018-02-13T23:49:32.552Z,15.50
2018-02-13T23:52:01.613Z,15.13
2018-02-13T23:54:29.907Z,19.25
2018-02-13T23:56:58.202Z,12.98
2018-02-13T23:59:27.259Z,23.75
